Time;durP1;ratioP1;P1;durP2;ratioP2;P2;SDS_P1;SDS_P2;PMS_P1;PMS_P2;Temp;Humidity;BMP_temperature;BMP_pressure;BME280_temperature;BME280_humidity;BME280_pressure;Samples;Min_cycle;Max_cycle;Signal;HPM_P1;HPM_P2
2023/07/15 00:02:08;;;;;;;5.10;2.10;;;25.90;37.80;;;;;;5073379;28;20938;-56
2023/07/15 00:04:36;;;;;;;2.23;2.03;;;25.90;37.70;;;;;;5073554;28;20473;-56
2023/07/15 00:07:05;;;;;;;2.20;1.90;;;25.90;37.80;;;;;;5073138;28;20467;-56
2023/07/15 00:09:34;;;;;;;2.43;2.20;;;25.90;38.30;;;;;;5073470;28;20444;-56
2023/07/15 00:12:01;;;;;;;2.40;2.20;;;25.80;38.40;;;;;;5073439;28;20863;-56
2023/07/15 00:14:29;;;;;;;3.23;2.53;;;25.70;38.30;;;;;;5073360;28;20476;-56
2023/07/15 00:16:55;;;;;;;3.73;2.27;;;25.60;38.60;;;;;;5073525;28;20477;-56
2023/07/15 00:19:22;;;;;;;2.70;2.13;;;25.60;38.80;;;;;;5072940;28;20837;-56
2023/07/15 00:21:50;;;;;;;2.63;2.20;;;25.60;38.90;;;;;;5073397;28;20444;-56
2023/07/15 00:24:17;;;;;;;3.57;2.50;;;25.50;39.00;;;;;;5073378;28;20468;-56
2023/07/15 00:26:47;;;;;;;3.30;2.17;;;25.50;39.30;;;;;;5073364;28;20535;-56
2023/07/15 00:29:14;;;;;;;3.80;2.13;;;25.50;39.10;;;;;;5073186;28;20480;-56
2023/07/15 00:31:43;;;;;;;2.60;1.87;;;25.50;39.10;;;;;;5072997;28;20961;-56
2023/07/15 00:34:10;;;;;;;5.47;1.97;;;25.40;39.30;;;;;;5073263;28;20473;-56
2023/07/15 00:36:37;;;;;;;2.27;2.07;;;25.40;39.40;;;;;;5073420;28;20444;-56
2023/07/15 00:39:05;;;;;;;4.83;2.10;;;25.40;39.50;;;;;;5073278;28;20451;-56
2023/07/15 00:41:34;;;;;;;4.80;2.37;;;25.40;39.60;;;;;;5073096;28;20444;-56
2023/07/15 00:44:03;;;;;;;2.50;2.30;;;25.40;39.80;;;;;;5073151;28;20541;-56
2023/07/15 00:47:02;;;;;;;2.80;2.00;;;25.30;39.80;;;;;;5073097;28;20448;-56
2023/07/15 00:49:32;;;;;;;3.80;1.90;;;25.30;40.10;;;;;;5073146;28;20428;-56
2023/07/15 00:52:03;;;;;;;3.23;2.30;;;25.30;40.10;;;;;;5073074;28;20445;-56
2023/07/15 00:54:33;;;;;;;6.23;2.10;;;25.20;40.30;;;;;;5073015;28;20475;-56
2023/07/15 00:57:01;;;;;;;2.30;2.10;;;25.20;40.30;;;;;;5074779;28;20486;-56
2023/07/15 00:59:29;;;;;;;3.93;2.07;;;25.10;40.50;;;;;;5077094;28;20448;-56
2023/07/15 01:01:58;;;;;;;4.30;1.80;;;25.10;40.80;;;;;;5076912;28;20455;-56
2023/07/15 01:04:24;;;;;;;1.97;1.77;;;25.10;40.70;;;;;;5076923;28;20471;-56
2023/07/15 01:06:52;;;;;;;5.00;2.20;;;25.10;40.80;;;;;;5076809;28;20445;-56
2023/07/15 01:09:19;;;;;;;4.07;2.20;;;25.00;40.70;;;;;;5076438;28;20994;-56
2023/07/15 01:11:46;;;;;;;3.00;1.67;;;25.00;40.90;;;;;;5076763;28;20535;-56
2023/07/15 01:14:13;;;;;;;3.63;2.03;;;25.00;41.00;;;;;;5076504;28;20468;-56
2023/07/15 01:16:40;;;;;;;3.47;2.13;;;24.90;41.20;;;;;;5076652;28;20445;-56
2023/07/15 01:19:08;;;;;;;4.07;2.50;;;24.90;41.10;;;;;;5076321;28;20487;-56
2023/07/15 01:21:36;;;;;;;4.53;1.80;;;24.90;41.20;;;;;;5076533;28;20471;-56
2023/07/15 01:24:06;;;;;;;1.90;1.80;;;24.80;41.20;;;;;;5076447;28;20464;-56
2023/07/15 01:26:33;;;;;;;3.10;2.07;;;24.80;41.40;;;;;;5076440;28;20452;-56
2023/07/15 01:29:00;;;;;;;2.90;2.00;;;24.80;41.30;;;;;;5076276;28;20519;-56
2023/07/15 01:31:27;;;;;;;3.00;2.00;;;24.70;41.30;;;;;;5076059;28;20952;-56
2023/07/15 01:33:54;;;;;;;6.07;2.40;;;24.70;41.40;;;;;;5076195;28;20464;-56
2023/07/15 01:36:21;;;;;;;1.97;1.83;;;24.60;41.50;;;;;;5076284;28;20448;-56
2023/07/15 01:38:48;;;;;;;2.63;2.10;;;24.60;41.60;;;;;;5076158;28;20444;-56
2023/07/15 01:41:16;;;;;;;5.20;2.00;;;24.60;41.50;;;;;;5076628;28;20585;-56
2023/07/15 01:43:43;;;;;;;3.80;1.97;;;24.60;41.80;;;;;;5076056;28;20464;-56
2023/07/15 01:46:10;;;;;;;4.23;2.07;;;24.60;41.90;;;;;;5075700;28;20455;-56
2023/07/15 01:48:37;;;;;;;3.10;1.70;;;24.50;42.00;;;;;;5075974;28;20498;-56
2023/07/15 01:51:04;;;;;;;2.10;1.90;;;24.50;41.80;;;;;;5075994;28;20441;-56
2023/07/15 01:53:30;;;;;;;2.03;1.83;;;24.50;41.70;;;;;;5075943;28;20491;-56
2023/07/15 01:55:57;;;;;;;2.37;2.03;;;24.50;41.90;;;;;;5075885;28;20449;-56
2023/07/15 01:58:25;;;;;;;5.40;2.23;;;24.50;41.80;;;;;;5075656;28;20965;-56
2023/07/15 02:00:52;;;;;;;2.07;1.73;;;24.50;41.70;;;;;;5075856;28;20456;-55
2023/07/15 02:03:18;;;;;;;3.93;1.73;;;24.40;41.90;;;;;;5075762;28;20488;-56
2023/07/15 02:05:45;;;;;;;2.30;1.70;;;24.40;42.00;;;;;;5075464;28;20977;-55
2023/07/15 02:08:12;;;;;;;2.53;2.33;;;24.30;42.00;;;;;;5075077;28;20483;-56
2023/07/15 02:10:38;;;;;;;3.53;2.20;;;24.30;42.20;;;;;;5075711;28;20537;-56
2023/07/15 02:13:05;;;;;;;2.47;1.80;;;24.30;42.30;;;;;;5075528;28;20830;-55
2023/07/15 02:15:33;;;;;;;2.70;1.80;;;24.30;42.40;;;;;;5075653;28;20449;-56
2023/07/15 02:18:00;;;;;;;2.73;1.70;;;24.30;42.60;;;;;;5075367;28;20502;-56
2023/07/15 02:20:26;;;;;;;2.40;2.00;;;24.20;42.60;;;;;;5075523;28;20449;-55
2023/07/15 02:22:53;;;;;;;5.60;2.20;;;24.20;42.40;;;;;;5075369;28;20469;-56
2023/07/15 02:25:20;;;;;;;3.23;1.77;;;24.20;42.50;;;;;;5075421;28;20444;-56
2023/07/15 02:27:48;;;;;;;2.40;1.80;;;24.20;42.50;;;;;;5075301;28;20445;-56
2023/07/15 02:30:15;;;;;;;3.30;1.80;;;24.20;42.60;;;;;;5075315;28;20448;-56
2023/07/15 02:32:44;;;;;;;3.53;2.00;;;24.20;42.60;;;;;;5074869;28;20990;-56
2023/07/15 02:35:13;;;;;;;2.23;1.83;;;24.20;42.70;;;;;;5074887;28;20552;-56
2023/07/15 02:37:42;;;;;;;2.00;1.80;;;24.20;42.90;;;;;;5075299;28;20460;-56
2023/07/15 02:40:10;;;;;;;1.70;1.40;;;24.10;42.80;;;;;;5075151;28;20452;-56
2023/07/15 02:42:37;;;;;;;2.60;2.03;;;24.10;42.90;;;;;;5075120;28;20451;-56
2023/07/15 02:45:05;;;;;;;3.80;2.33;;;24.00;43.00;;;;;;5075105;28;20455;-56
2023/07/15 02:47:32;;;;;;;2.47;1.90;;;24.00;43.00;;;;;;5074910;28;20452;-56
2023/07/15 02:50:04;;;;;;;1.97;1.80;;;24.00;43.10;;;;;;5074714;28;21033;-56
2023/07/15 02:52:32;;;;;;;2.00;1.80;;;24.00;43.20;;;;;;5075000;28;20429;-56
2023/07/15 02:54:59;;;;;;;5.03;3.00;;;24.00;43.30;;;;;;5074849;28;20448;-56
2023/07/15 02:57:26;;;;;;;4.13;2.20;;;24.00;43.20;;;;;;5074990;28;20868;-56
2023/07/15 02:59:53;;;;;;;3.33;1.50;;;23.90;43.10;;;;;;5075123;28;20491;-55
2023/07/15 03:02:20;;;;;;;2.53;2.33;;;23.90;43.20;;;;;;5074526;28;20448;-56
2023/07/15 03:04:47;;;;;;;2.50;1.93;;;23.90;43.10;;;;;;5074311;28;20444;-56
2023/07/15 03:07:15;;;;;;;4.67;1.70;;;23.80;43.20;;;;;;5075354;28;20919;-56
2023/07/15 03:09:42;;;;;;;4.20;2.03;;;23.80;43.40;;;;;;5075232;28;20472;-56
2023/07/15 03:12:09;;;;;;;4.23;1.90;;;23.80;43.60;;;;;;5074347;28;20448;-56
2023/07/15 03:14:36;;;;;;;3.57;1.83;;;23.80;43.50;;;;;;5074352;28;20472;-55
2023/07/15 03:17:03;;;;;;;8.33;1.83;;;23.80;43.40;;;;;;5074078;28;20962;-55
2023/07/15 03:19:31;;;;;;;2.33;1.53;;;23.80;43.50;;;;;;5073506;28;20448;-56
2023/07/15 03:21:57;;;;;;;3.90;2.20;;;23.80;43.60;;;;;;5073762;28;20448;-55
2023/07/15 03:24:26;;;;;;;2.70;1.93;;;23.70;43.50;;;;;;5073862;28;20872;-56
2023/07/15 03:26:53;;;;;;;3.67;2.07;;;23.80;43.40;;;;;;5073887;28;20475;-56
2023/07/15 03:29:20;;;;;;;6.50;2.27;;;23.80;43.50;;;;;;5074130;28;21011;-56
2023/07/15 03:31:47;;;;;;;2.47;1.80;;;23.70;43.30;;;;;;5074029;28;20445;-55
2023/07/15 03:34:13;;;;;;;5.50;1.87;;;23.80;43.30;;;;;;5073860;28;20472;-56
2023/07/15 03:36:40;;;;;;;3.90;1.90;;;23.70;43.40;;;;;;5073967;28;20449;-56
2023/07/15 03:39:07;;;;;;;2.10;1.90;;;23.70;43.40;;;;;;5073893;28;20445;-55
2023/07/15 03:41:36;;;;;;;2.30;2.10;;;23.70;43.50;;;;;;5073970;28;20451;-56
2023/07/15 03:44:03;;;;;;;4.57;2.13;;;23.70;43.50;;;;;;5074531;28;20526;-56
2023/07/15 03:46:30;;;;;;;2.20;1.90;;;23.70;43.60;;;;;;5073873;28;20456;-56
2023/07/15 03:48:57;;;;;;;2.33;2.13;;;23.60;43.50;;;;;;5073752;28;20476;-56
2023/07/15 03:51:24;;;;;;;3.50;1.90;;;23.70;43.70;;;;;;5073712;28;20449;-56
2023/07/15 03:53:50;;;;;;;2.63;2.07;;;23.70;43.70;;;;;;5073307;28;20537;-55
2023/07/15 03:56:17;;;;;;;2.83;2.27;;;23.70;43.80;;;;;;5073490;28;20807;-56
2023/07/15 03:58:45;;;;;;;5.57;1.80;;;23.60;43.90;;;;;;5073577;28;20448;-56
2023/07/15 04:01:12;;;;;;;5.57;2.23;;;23.60;43.80;;;;;;5073984;28;20440;-56
2023/07/15 04:03:39;;;;;;;2.87;2.03;;;23.70;43.90;;;;;;5073556;28;20564;-56
2023/07/15 04:06:06;;;;;;;4.50;2.33;;;23.60;43.80;;;;;;5073535;28;20482;-55
2023/07/15 04:08:33;;;;;;;3.43;2.20;;;23.60;43.80;;;;;;5073434;28;20473;-56
2023/07/15 04:11:00;;;;;;;3.70;2.00;;;23.70;43.90;;;;;;5074269;28;20460;-56
2023/07/15 04:13:26;;;;;;;3.07;1.80;;;23.60;44.00;;;;;;5073475;28;20833;-55
2023/07/15 04:15:54;;;;;;;2.40;2.17;;;23.60;44.10;;;;;;5073254;28;20490;-55
2023/07/15 04:18:21;;;;;;;2.40;2.20;;;23.60;44.00;;;;;;5072839;28;20455;-56
2023/07/15 04:20:48;;;;;;;2.97;2.30;;;23.60;44.00;;;;;;5073222;28;20456;-56
2023/07/15 04:23:14;;;;;;;4.43;1.93;;;23.60;44.10;;;;;;5073092;28;21013;-56
2023/07/15 04:25:41;;;;;;;4.23;1.97;;;23.60;44.90;;;;;;5073005;28;20459;-56
2023/07/15 04:28:08;;;;;;;2.00;1.50;;;23.60;44.30;;;;;;5073037;28;20501;-56
2023/07/15 04:30:35;;;;;;;5.77;1.90;;;23.60;44.40;;;;;;5068724;28;20567;-56
2023/07/15 04:33:03;;;;;;;2.23;1.90;;;23.60;44.40;;;;;;5072705;28;20989;-55
2023/07/15 04:35:30;;;;;;;4.07;1.90;;;23.60;44.30;;;;;;5073342;28;20552;-55
2023/07/15 04:37:56;;;;;;;3.00;1.70;;;23.70;44.70;;;;;;5073233;28;20449;-56
2023/07/15 04:40:23;;;;;;;4.47;2.67;;;23.70;44.50;;;;;;5072012;28;20463;-56
2023/07/15 04:42:50;;;;;;;4.30;2.30;;;23.70;44.60;;;;;;5072386;28;20484;-56
2023/07/15 04:45:17;;;;;;;5.23;2.13;;;23.70;44.60;;;;;;5072716;28;20942;-56
2023/07/15 04:47:43;;;;;;;2.23;1.90;;;23.80;44.70;;;;;;5073134;28;20448;-55
2023/07/15 04:50:11;;;;;;;2.67;2.10;;;23.80;44.50;;;;;;5073692;28;20484;-55
2023/07/15 04:52:38;;;;;;;3.63;2.10;;;23.80;44.60;;;;;;5059253;28;20975;-56
2023/07/15 04:55:05;;;;;;;4.23;2.00;;;23.90;44.80;;;;;;5053217;28;20450;-56
2023/07/15 04:57:32;;;;;;;5.20;2.20;;;23.90;45.10;;;;;;5052888;28;21053;-55
2023/07/15 04:59:59;;;;;;;3.07;2.60;;;23.90;44.80;;;;;;5053122;28;20441;-56
2023/07/15 05:02:25;;;;;;;1.77;1.67;;;23.90;45.00;;;;;;5059367;28;20469;-56
2023/07/15 05:04:52;;;;;;;1.73;1.40;;;24.00;45.00;;;;;;5052493;28;20466;-55
2023/07/15 05:07:21;;;;;;;2.03;1.60;;;24.00;44.90;;;;;;5054894;28;20465;-56
2023/07/15 05:09:49;;;;;;;2.30;2.03;;;23.90;44.70;;;;;;5052631;28;21094;-56
2023/07/15 05:12:16;;;;;;;2.23;1.93;;;23.90;44.70;;;;;;5053471;28;20540;-56
2023/07/15 05:14:42;;;;;;;1.87;1.73;;;23.90;44.90;;;;;;5052477;28;20477;-56
2023/07/15 05:17:09;;;;;;;2.43;1.80;;;23.90;44.80;;;;;;5055251;28;20457;-56
2023/07/15 05:19:36;;;;;;;5.10;2.40;;;23.90;45.10;;;;;;5072180;28;20456;-56
2023/07/15 05:22:02;;;;;;;1.87;1.60;;;23.90;45.10;;;;;;5072812;28;20546;-56
2023/07/15 05:24:31;;;;;;;2.33;1.80;;;23.90;45.10;;;;;;5072382;28;20568;-55
2023/07/15 05:26:58;;;;;;;3.17;2.00;;;23.90;45.20;;;;;;5072555;28;20946;-56
2023/07/15 05:29:25;;;;;;;5.03;2.17;;;24.00;45.20;;;;;;5072555;28;20485;-56
2023/07/15 05:31:51;;;;;;;3.20;1.80;;;24.00;45.40;;;;;;5072669;28;20444;-56
2023/07/15 05:34:18;;;;;;;2.90;1.90;;;24.10;45.50;;;;;;5072601;28;20469;-56
2023/07/15 05:36:45;;;;;;;3.10;1.80;;;24.10;45.50;;;;;;5072656;28;20448;-56
2023/07/15 05:39:12;;;;;;;4.00;2.90;;;24.30;45.40;;;;;;5072350;28;20938;-56
2023/07/15 05:41:40;;;;;;;4.63;2.30;;;24.30;45.50;;;;;;5072754;28;20457;-56
2023/07/15 05:44:06;;;;;;;4.93;1.83;;;24.30;45.50;;;;;;5074377;28;20472;-56
2023/07/15 05:46:34;;;;;;;7.33;2.10;;;24.30;45.40;;;;;;5076686;28;20483;-56
2023/07/15 05:49:03;;;;;;;4.53;1.67;;;24.40;45.30;;;;;;5076017;28;20479;-56
2023/07/15 05:51:30;;;;;;;3.70;1.40;;;24.50;45.50;;;;;;5076599;28;20455;-56
2023/07/15 05:53:57;;;;;;;3.17;1.77;;;24.50;45.40;;;;;;5075658;28;20903;-55
2023/07/15 05:56:24;;;;;;;3.53;1.40;;;24.60;45.50;;;;;;5075945;28;20455;-56
2023/07/15 05:58:52;;;;;;;4.00;1.70;;;24.70;45.40;;;;;;5075918;28;20831;-56
2023/07/15 06:01:18;;;;;;;5.40;1.90;;;24.80;45.30;;;;;;5075878;28;20444;-56
2023/07/15 06:03:45;;;;;;;2.43;1.60;;;24.90;45.20;;;;;;5075760;28;20467;-56
2023/07/15 06:06:13;;;;;;;5.57;2.70;;;25.00;44.90;;;;;;5075840;28;20448;-56
2023/07/15 06:08:39;;;;;;;2.97;2.20;;;25.20;44.90;;;;;;5075747;28;20448;-56
2023/07/15 06:11:06;;;;;;;4.93;2.50;;;25.30;44.80;;;;;;5075565;28;20488;-56
2023/07/15 06:13:33;;;;;;;3.47;2.00;;;25.40;44.90;;;;;;5075575;28;20530;-56
2023/07/15 06:16:01;;;;;;;3.90;2.10;;;25.50;45.00;;;;;;5075263;28;20452;-56
2023/07/15 06:18:28;;;;;;;4.20;1.80;;;25.60;45.00;;;;;;5075790;28;20452;-56
2023/07/15 06:20:55;;;;;;;2.70;1.90;;;25.80;44.80;;;;;;5075358;28;20433;-56
2023/07/15 06:23:21;;;;;;;2.83;1.60;;;25.90;44.70;;;;;;5075044;28;20982;-56
2023/07/15 06:25:48;;;;;;;8.03;1.70;;;26.00;44.40;;;;;;5075098;28;20830;-56
2023/07/15 06:28:15;;;;;;;2.90;1.90;;;26.10;44.30;;;;;;5075393;28;20818;-56
2023/07/15 06:30:42;;;;;;;3.83;1.80;;;26.20;44.10;;;;;;5074857;28;20519;-56
2023/07/15 06:33:10;;;;;;;3.33;1.70;;;26.30;44.10;;;;;;5074811;28;20499;-56
2023/07/15 06:35:36;;;;;;;5.20;1.47;;;26.40;44.10;;;;;;5075166;28;20491;-56
2023/07/15 06:38:03;;;;;;;2.63;1.50;;;26.40;43.70;;;;;;5075137;28;20452;-56
2023/07/15 06:40:30;;;;;;;6.37;1.67;;;26.50;43.50;;;;;;5075053;28;20448;-56
2023/07/15 06:42:56;;;;;;;6.60;2.07;;;26.60;43.50;;;;;;5075004;28;20465;-56
2023/07/15 06:45:33;;;;;;;9.60;2.17;;;26.80;43.50;;;;;;5074573;28;20445;-56
2023/07/15 06:48:00;;;;;;;8.37;2.63;;;26.80;43.20;;;;;;5075834;28;20451;-56
2023/07/15 06:50:28;;;;;;;4.80;2.07;;;26.90;43.20;;;;;;5074904;28;20857;-56
2023/07/15 06:52:55;;;;;;;8.33;2.17;;;27.10;43.10;;;;;;5074714;28;20518;-56
2023/07/15 06:55:22;;;;;;;4.43;1.80;;;27.20;42.80;;;;;;5074280;28;20973;-56
2023/07/15 06:57:49;;;;;;;8.30;2.30;;;27.30;42.50;;;;;;5074486;28;20830;-56
2023/07/15 07:00:15;;;;;;;4.53;1.80;;;27.50;42.30;;;;;;5074663;28;20440;-56
2023/07/15 07:02:42;;;;;;;6.23;2.47;;;27.60;41.90;;;;;;5074546;28;20479;-56
2023/07/15 07:05:09;;;;;;;6.37;1.93;;;27.60;42.00;;;;;;5074628;28;20445;-56
2023/07/15 07:07:37;;;;;;;7.43;2.80;;;27.60;41.80;;;;;;5075082;28;20452;-56
2023/07/15 07:10:04;;;;;;;5.20;2.00;;;27.60;41.70;;;;;;5072917;28;20511;-56
2023/07/15 07:12:31;;;;;;;5.03;1.90;;;27.60;41.50;;;;;;5074255;28;20452;-56
2023/07/15 07:14:58;;;;;;;3.60;2.20;;;27.60;41.60;;;;;;5074365;28;20449;-56
2023/07/15 07:17:24;;;;;;;4.97;1.87;;;27.50;41.50;;;;;;5074379;28;20452;-56
2023/07/15 07:19:51;;;;;;;3.07;1.83;;;27.50;41.60;;;;;;5073885;28;20445;-56
2023/07/15 07:22:18;;;;;;;4.90;1.80;;;27.50;41.80;;;;;;5074174;28;20452;-56
2023/07/15 07:24:46;;;;;;;4.50;1.70;;;27.60;42.00;;;;;;5073699;28;21000;-56
2023/07/15 07:27:13;;;;;;;4.03;2.00;;;27.60;41.80;;;;;;5073736;28;20849;-56
2023/07/15 07:29:40;;;;;;;5.80;1.93;;;27.60;41.60;;;;;;5073979;28;20570;-56
2023/07/15 07:32:07;;;;;;;13.63;3.10;;;27.60;41.70;;;;;;5074112;28;20456;-56
2023/07/15 07:34:34;;;;;;;7.27;2.30;;;27.70;41.70;;;;;;5073945;28;20476;-56
2023/07/15 07:37:01;;;;;;;5.93;2.20;;;27.70;41.50;;;;;;5073965;28;20448;-56
2023/07/15 07:39:28;;;;;;;4.50;1.83;;;27.80;41.50;;;;;;5073878;28;20475;-56
2023/07/15 07:41:56;;;;;;;7.50;2.57;;;27.80;41.40;;;;;;5073941;28;20457;-56
2023/07/15 07:44:22;;;;;;;4.90;2.50;;;27.90;41.50;;;;;;5073754;28;20480;-56
2023/07/15 07:46:49;;;;;;;3.67;2.00;;;28.00;41.50;;;;;;5073811;28;20449;-56
2023/07/15 07:49:17;;;;;;;6.83;1.70;;;28.00;41.30;;;;;;5073719;28;20459;-56
2023/07/15 07:51:43;;;;;;;3.80;2.17;;;28.10;41.50;;;;;;5073747;28;20455;-56
2023/07/15 07:54:10;;;;;;;5.43;1.97;;;28.10;41.30;;;;;;5073595;28;20468;-56
2023/07/15 07:56:37;;;;;;;5.20;1.80;;;28.20;41.40;;;;;;5073699;28;20444;-56
2023/07/15 07:59:05;;;;;;;3.13;2.33;;;28.20;41.10;;;;;;5073617;28;20449;-56
2023/07/15 08:01:31;;;;;;;7.60;2.17;;;28.20;41.00;;;;;;5073272;28;20580;-56
2023/07/15 08:03:58;;;;;;;2.60;1.60;;;28.40;40.90;;;;;;5073192;28;20854;-56
2023/07/15 08:06:26;;;;;;;4.53;1.97;;;28.50;40.90;;;;;;5073071;28;20444;-56
2023/07/15 08:08:54;;;;;;;7.53;1.40;;;28.60;40.70;;;;;;5073422;28;20448;-56
2023/07/15 08:11:21;;;;;;;2.67;1.80;;;28.70;40.50;;;;;;5073126;28;20997;-56
2023/07/15 08:13:48;;;;;;;3.60;1.97;;;28.70;40.50;;;;;;5073418;28;20472;-56
2023/07/15 08:16:33;;;;;;;3.20;1.57;;;28.80;40.50;;;;;;5073401;28;20449;-56
2023/07/15 08:19:00;;;;;;;3.33;1.80;;;28.90;40.30;;;;;;5073092;28;20514;-56
2023/07/15 08:21:28;;;;;;;3.07;2.00;;;28.90;40.40;;;;;;5073378;28;20444;-56
2023/07/15 08:23:54;;;;;;;1.83;1.73;;;28.90;40.80;;;;;;5073366;28;20468;-56
2023/07/15 08:26:21;;;;;;;4.23;1.50;;;28.80;41.40;;;;;;5073323;28;20565;-56
2023/07/15 08:28:48;;;;;;;2.87;1.93;;;28.70;41.70;;;;;;5073273;28;20456;-56
2023/07/15 08:31:15;;;;;;;5.30;1.50;;;28.70;42.40;;;;;;5073136;28;20484;-56
2023/07/15 08:33:44;;;;;;;3.70;1.73;;;28.50;42.90;;;;;;5073203;28;20469;-56
2023/07/15 08:36:11;;;;;;;3.40;1.80;;;28.40;43.30;;;;;;5072975;28;20939;-56
2023/07/15 08:38:37;;;;;;;3.70;1.67;;;28.30;44.10;;;;;;5072919;28;20927;-56
2023/07/15 08:41:04;;;;;;;5.67;1.60;;;28.10;44.90;;;;;;5072890;28;20948;-56
2023/07/15 08:43:31;;;;;;;7.73;1.73;;;28.00;46.10;;;;;;5073089;28;20472;-56
2023/07/15 08:46:01;;;;;;;4.87;1.43;;;27.80;46.30;;;;;;5073243;28;20454;-56
2023/07/15 08:48:28;;;;;;;1.63;1.53;;;27.60;47.10;;;;;;5073277;28;20502;-55
2023/07/15 08:50:58;;;;;;;2.70;1.27;;;27.40;47.70;;;;;;5073200;28;20476;-56
2023/07/15 08:53:26;;;;;;;3.27;1.37;;;27.20;48.10;;;;;;5072987;28;20472;-56
2023/07/15 08:55:55;;;;;;;5.73;1.73;;;27.00;49.80;;;;;;5073169;28;20478;-55
2023/07/15 08:58:22;;;;;;;6.27;1.57;;;26.80;51.60;;;;;;5073278;28;20444;-55
2023/07/15 09:00:50;;;;;;;8.37;1.53;;;26.60;52.60;;;;;;5072867;28;20518;-55
2023/07/15 09:03:16;;;;;;;3.97;1.77;;;26.40;53.60;;;;;;5072809;28;21008;-54
2023/07/15 09:05:43;;;;;;;4.17;1.63;;;26.30;56.10;;;;;;5073043;28;20445;-54
2023/07/15 09:08:14;;;;;;;3.90;1.40;;;26.20;57.30;;;;;;5072999;28;20472;-55
2023/07/15 09:10:51;;;;;;;2.30;1.87;;;26.10;59.40;;;;;;5072858;28;20465;-55
2023/07/15 09:13:23;;;;;;;2.90;1.90;;;25.90;61.00;;;;;;5072880;28;20475;-56
2023/07/15 09:15:49;;;;;;;3.47;1.97;;;25.80;62.50;;;;;;5072952;28;20527;-56
2023/07/15 09:18:16;;;;;;;2.73;1.43;;;25.70;63.60;;;;;;5073274;28;20449;-56
2023/07/15 09:20:43;;;;;;;5.43;2.23;;;25.60;63.90;;;;;;5076769;28;20425;-55
2023/07/15 09:23:11;;;;;;;10.27;2.70;;;25.60;65.50;;;;;;5076277;28;20457;-54
2023/07/15 09:25:38;;;;;;;11.53;2.43;;;25.50;68.00;;;;;;5076463;28;20471;-55
2023/07/15 09:28:08;;;;;;;2.20;1.90;;;25.40;70.30;;;;;;5076511;28;20448;-54
2023/07/15 09:30:40;;;;;;;3.23;1.97;;;25.30;73.20;;;;;;5076113;28;20973;-55
2023/07/15 09:33:07;;;;;;;8.50;2.33;;;25.10;74.20;;;;;;5076358;28;20492;-56
2023/07/15 09:35:37;;;;;;;8.70;2.03;;;25.10;74.60;;;;;;5076375;28;20875;-55
2023/07/15 09:38:03;;;;;;;5.00;1.73;;;25.10;77.90;;;;;;5076285;28;20444;-56
2023/07/15 09:40:42;;;;;;;2.87;1.80;;;25.00;78.90;;;;;;5076565;28;20436;-56
2023/07/15 09:43:10;;;;;;;5.07;1.87;;;24.90;80.80;;;;;;5075859;28;21002;-56
2023/07/15 09:45:38;;;;;;;2.00;1.80;;;24.90;81.10;;;;;;5075883;28;20958;-56
2023/07/15 09:48:06;;;;;;;2.77;1.83;;;24.90;82.30;;;;;;5076108;28;20870;-56
2023/07/15 09:50:34;;;;;;;2.60;1.80;;;25.00;83.00;;;;;;5076011;28;20486;-56
2023/07/15 09:53:01;;;;;;;2.03;1.83;;;24.90;82.30;;;;;;5075921;28;20473;-56
2023/07/15 09:55:29;;;;;;;2.90;1.90;;;25.00;81.90;;;;;;5076023;28;20453;-54
2023/07/15 09:58:05;;;;;;;1.77;1.67;;;25.00;83.10;;;;;;5075921;28;20539;-55
2023/07/15 10:00:35;;;;;;;4.00;2.30;;;25.10;83.30;;;;;;5075932;28;20469;-55
2023/07/15 10:03:04;;;;;;;1.90;1.70;;;25.10;83.90;;;;;;5075809;28;20472;-56
2023/07/15 10:05:32;;;;;;;3.73;2.10;;;25.20;84.50;;;;;;5075543;28;20448;-55
2023/07/15 10:07:59;;;;;;;3.83;2.23;;;25.20;85.00;;;;;;5075756;28;20804;-56
2023/07/15 10:10:25;;;;;;;2.70;2.40;;;25.20;85.10;;;;;;5075743;28;20896;-56
2023/07/15 10:12:52;;;;;;;3.57;2.20;;;25.20;83.40;;;;;;5075680;28;20480;-54
2023/07/15 10:15:20;;;;;;;2.40;1.90;;;25.20;84.20;;;;;;5075666;28;20444;-55
2023/07/15 10:17:47;;;;;;;3.03;2.00;;;25.30;85.70;;;;;;5075555;28;20444;-56
2023/07/15 10:20:15;;;;;;;2.20;1.93;;;25.40;85.00;;;;;;5075156;28;20497;-56
2023/07/15 10:22:42;;;;;;;2.53;2.20;;;25.60;85.00;;;;;;5075408;28;20448;-56
2023/07/15 10:25:10;;;;;;;2.90;1.63;;;25.90;84.60;;;;;;5075452;28;20478;-56
2023/07/15 10:27:38;;;;;;;2.40;2.20;;;26.10;82.70;;;;;;5075378;28;20453;-56
2023/07/15 10:30:22;;;;;;;3.40;2.00;;;26.30;81.20;;;;;;5075659;28;20494;-56
2023/07/15 10:33:13;;;;;;;2.70;1.90;;;26.50;81.60;;;;;;5075253;28;20845;-56
2023/07/15 10:35:53;;;;;;;4.10;1.73;;;26.70;80.70;;;;;;5060023;28;20552;-56
2023/07/15 10:38:24;;;;;;;2.33;1.97;;;27.00;80.00;;;;;;5075057;28;20463;-56
2023/07/15 10:40:52;;;;;;;5.80;1.80;;;27.30;77.80;;;;;;5075102;28;20441;-56
2023/07/15 10:43:21;;;;;;;2.27;1.33;;;27.50;76.40;;;;;;5075067;28;20826;-56
2023/07/15 10:45:53;;;;;;;2.33;1.33;;;27.50;74.40;;;;;;5075068;28;20448;-57
2023/07/15 10:48:21;;;;;;;1.83;1.50;;;27.60;75.10;;;;;;5075068;28;20443;-57
2023/07/15 10:50:49;;;;;;;4.27;1.90;;;27.70;75.30;;;;;;5074857;28;20849;-57
2023/07/15 10:53:23;;;;;;;2.53;1.80;;;27.90;72.90;;;;;;5074788;28;20525;-56
2023/07/15 10:55:59;;;;;;;3.20;1.77;;;28.10;73.00;;;;;;5074805;28;20444;-57
2023/07/15 10:58:26;;;;;;;3.90;1.63;;;28.30;72.40;;;;;;5075253;28;20452;-56
2023/07/15 11:00:59;;;;;;;5.40;2.00;;;28.70;70.10;;;;;;5074783;28;20453;-56
2023/07/15 11:03:26;;;;;;;1.93;1.43;;;29.00;69.10;;;;;;5074647;28;20498;-57
2023/07/15 11:05:55;;;;;;;2.40;1.90;;;29.50;68.50;;;;;;5074651;28;20444;-56
2023/07/15 11:08:22;;;;;;;4.07;1.90;;;30.30;65.50;;;;;;5074610;28;20485;-57
2023/07/15 11:10:49;;;;;;;2.37;1.80;;;30.90;61.20;;;;;;5074272;28;20480;-57
2023/07/15 11:13:18;;;;;;;6.20;2.40;;;31.10;58.80;;;;;;5074475;28;20530;-57
2023/07/15 11:15:45;;;;;;;5.97;1.80;;;30.90;59.30;;;;;;5074411;28;20452;-57
2023/07/15 11:18:17;;;;;;;2.87;1.90;;;30.70;59.10;;;;;;5073899;28;20992;-57
2023/07/15 11:20:45;;;;;;;2.23;2.03;;;30.30;59.60;;;;;;5074430;28;20457;-57
2023/07/15 11:23:12;;;;;;;2.53;1.83;;;30.00;59.40;;;;;;5074225;28;20479;-57
2023/07/15 11:25:39;;;;;;;2.03;1.83;;;29.80;61.40;;;;;;5074226;28;20453;-57
2023/07/15 11:28:06;;;;;;;2.27;2.10;;;29.70;61.00;;;;;;5074187;28;20535;-57
2023/07/15 11:30:37;;;;;;;1.40;1.30;;;29.60;61.60;;;;;;5074076;28;20448;-57
2023/07/15 11:33:04;;;;;;;3.10;1.90;;;29.50;62.40;;;;;;5074007;28;20464;-57
2023/07/15 11:35:33;;;;;;;1.80;1.67;;;29.50;61.70;;;;;;5074049;28;20455;-57
2023/07/15 11:38:06;;;;;;;2.57;2.37;;;29.30;61.10;;;;;;5073976;28;20479;-57
2023/07/15 11:40:35;;;;;;;3.30;2.20;;;29.10;62.00;;;;;;5073636;28;20478;-56
2023/07/15 11:43:04;;;;;;;1.90;1.70;;;28.90;63.70;;;;;;5073266;28;20841;-56
2023/07/15 11:45:32;;;;;;;5.20;2.33;;;28.70;64.30;;;;;;5073884;28;20445;-57
2023/07/15 11:47:58;;;;;;;2.97;2.30;;;28.60;64.90;;;;;;5073851;28;20515;-57
2023/07/15 11:50:26;;;;;;;3.17;2.50;;;28.50;65.70;;;;;;5073760;28;20464;-57
2023/07/15 11:52:58;;;;;;;2.50;2.00;;;28.50;66.10;;;;;;5073741;28;20516;-57
2023/07/15 11:55:26;;;;;;;5.80;2.27;;;28.40;65.70;;;;;;5073836;28;20425;-57
2023/07/15 11:57:53;;;;;;;4.37;2.33;;;28.30;66.30;;;;;;5073831;28;20489;-56
2023/07/15 12:00:27;;;;;;;2.20;2.10;;;28.10;67.20;;;;;;5073540;28;20445;-56
2023/07/15 12:02:54;;;;;;;1.90;1.80;;;27.90;68.10;;;;;;5073605;28;20464;-56
2023/07/15 12:05:21;;;;;;;2.00;1.90;;;27.60;70.00;;;;;;5073710;28;20445;-56
2023/07/15 12:07:49;;;;;;;3.20;2.63;;;27.40;71.50;;;;;;5073666;28;20502;-56
2023/07/15 12:10:18;;;;;;;3.70;1.97;;;27.20;72.50;;;;;;5073584;28;20448;-56
2023/07/15 12:12:45;;;;;;;4.33;2.30;;;27.10;72.60;;;;;;5073476;28;20487;-56
2023/07/15 12:15:15;;;;;;;3.90;2.00;;;26.90;73.60;;;;;;5073416;28;20510;-56
2023/07/15 12:17:41;;;;;;;1.80;1.70;;;27.00;74.30;;;;;;5073425;28;20444;-56
2023/07/15 12:20:09;;;;;;;2.57;2.07;;;27.20;73.60;;;;;;5072882;28;20463;-57
2023/07/15 12:22:36;;;;;;;2.50;2.17;;;27.40;73.10;;;;;;5073418;28;20451;-56
2023/07/15 12:25:03;;;;;;;2.60;2.40;;;27.60;72.80;;;;;;5073962;28;20452;-56
2023/07/15 12:27:32;;;;;;;2.73;1.83;;;27.80;71.90;;;;;;5073375;28;20953;-56
2023/07/15 12:29:58;;;;;;;2.10;1.90;;;28.00;71.70;;;;;;5073283;28;20451;-56
2023/07/15 12:32:26;;;;;;;2.67;2.30;;;28.10;70.60;;;;;;5073177;28;20487;-56
2023/07/15 12:34:52;;;;;;;2.80;2.50;;;28.10;70.50;;;;;;5073000;28;20943;-56
2023/07/15 12:37:19;;;;;;;2.37;2.17;;;28.20;70.20;;;;;;5072885;28;20943;-56
2023/07/15 12:39:46;;;;;;;3.23;2.20;;;28.10;70.40;;;;;;5072910;28;20853;-56
2023/07/15 12:42:12;;;;;;;3.33;1.73;;;28.30;71.20;;;;;;5073257;28;20848;-56
2023/07/15 12:44:40;;;;;;;2.00;1.90;;;28.80;69.30;;;;;;5073204;28;20464;-57
2023/07/15 12:47:07;;;;;;;1.77;1.60;;;30.10;64.20;;;;;;5073188;28;20456;-57
2023/07/15 12:49:34;;;;;;;2.80;2.07;;;31.30;58.50;;;;;;5073188;28;20448;-57